Terminal Aerodrome Forecast
Issued by NWS Sterling, VA

Home | Current Version | Previous Version | Text Only | Print | Product List | Glossary On
Versions: 1 2 3 4 5 6 7 8 9 10 11 12 13 14 15
000
FTUS41 KLWX 102300
TAFCHO
TAF
KCHO 102337Z 1100/1124 18003KT P6SM FEW080
     FM110100 00000KT P6SM VCTS SCT050CB
     FM110400 00000KT P6SM SCT050
     FM110900 VRB03KT 2SM BR SCT050
     FM111300 04005KT P6SM SCT050=

USA.gov is the U.S. government's official web portal to all federal, state and local government web resources and services.